VVZ weather

Illizi Takhamalt Airport
Illizi, Illizi Province, Algeria

Public forecast

Using degrees Celsius for public forecast. Weather courtesy of forecast.io.

METAR (pilot weather report)

Retrieved 2019/04/19 17:00 UTC (55 minutes ago):

DAAP 191700Z 14006KT CAVOK 36/M01 Q1010

TAF (pilot weather forecast)

Forecast is more than 12 hours old.

Retrieved 2017/11/09 18:03 UTC (1 year ago):

TAF TAF DAAP 091700Z 0918/1009 17010KT CAVOK